createdAt,value
2022-12-24T00:01:24.112Z,7.40
2022-12-24T00:03:52.247Z,7.40
2022-12-24T00:06:22.775Z,7.40
2022-12-24T00:08:51.396Z,7.50
2022-12-24T00:11:19.531Z,7.50
2022-12-24T00:13:47.585Z,7.50
2022-12-24T00:16:15.633Z,7.50
2022-12-24T00:18:46.503Z,7.50
2022-12-24T00:21:15.542Z,7.50
2022-12-24T00:23:43.744Z,7.50
2022-12-24T00:26:11.821Z,7.50
2022-12-24T00:28:39.865Z,7.60
2022-12-24T00:31:12.542Z,7.60
2022-12-24T00:33:40.944Z,7.50
2022-12-24T00:36:10.943Z,7.40
2022-12-24T00:38:39.365Z,7.50
2022-12-24T00:41:24.620Z,7.40
2022-12-24T00:43:54.404Z,7.40
2022-12-24T00:46:23.035Z,7.50
2022-12-24T00:48:51.116Z,7.30
2022-12-24T00:51:21.409Z,7.30
2022-12-24T00:53:50.336Z,7.20
2022-12-24T00:56:18.792Z,7.40
2022-12-24T00:58:47.078Z,7.50
2022-12-24T01:01:15.260Z,7.60
2022-12-24T01:03:43.524Z,7.60
2022-12-24T01:06:13.197Z,7.70
2022-12-24T01:08:43.145Z,7.70
2022-12-24T01:11:12.795Z,7.70
2022-12-24T01:13:41.317Z,7.70
2022-12-24T01:16:17.218Z,7.60
2022-12-24T01:18:45.412Z,7.60
2022-12-24T01:21:13.626Z,7.70
2022-12-24T01:23:43.248Z,7.70
2022-12-24T01:26:12.594Z,7.70
2022-12-24T01:28:40.897Z,7.70
2022-12-24T01:31:13.011Z,7.70
2022-12-24T01:33:41.193Z,7.70
2022-12-24T01:36:09.885Z,7.60
2022-12-24T01:38:37.909Z,7.70
2022-12-24T01:41:24.894Z,7.80
2022-12-24T01:43:52.984Z,7.80
2022-12-24T01:46:23.986Z,7.80
2022-12-24T01:48:55.367Z,7.80
2022-12-24T01:51:28.633Z,7.80
2022-12-24T01:53:59.611Z,7.80
2022-12-24T01:56:31.253Z,7.80
2022-12-24T01:59:04.872Z,7.80
2022-12-24T02:01:33.004Z,7.80
2022-12-24T02:04:02.269Z,7.80
2022-12-24T02:06:30.280Z,7.90
2022-12-24T02:08:58.394Z,7.80
2022-12-24T02:11:26.359Z,7.90
2022-12-24T02:13:59.370Z,7.90
2022-12-24T02:16:38.138Z,8.10
2022-12-24T02:19:23.359Z,8.00
2022-12-24T02:21:59.157Z,7.90
2022-12-24T02:24:49.191Z,7.80
2022-12-24T02:27:48.095Z,7.80
2022-12-24T02:30:20.723Z,7.90
2022-12-24T02:33:01.306Z,7.90
2022-12-24T02:35:37.030Z,7.80
2022-12-24T02:38:13.264Z,7.90
2022-12-24T02:40:47.785Z,8.00
2022-12-24T02:43:20.832Z,7.90
2022-12-24T02:45:59.240Z,7.80
2022-12-24T02:48:29.451Z,7.80
2022-12-24T02:50:59.570Z,7.80
2022-12-24T02:53:27.532Z,7.90
2022-12-24T02:56:11.914Z,8.00
2022-12-24T02:58:50.202Z,8.00
2022-12-24T03:01:28.365Z,8.10
2022-12-24T03:04:11.947Z,8.10
2022-12-24T03:06:45.645Z,8.00
2022-12-24T03:09:25.697Z,8.00
2022-12-24T03:11:59.452Z,7.90
2022-12-24T03:14:29.077Z,8.00
2022-12-24T03:16:59.588Z,8.00
2022-12-24T03:19:28.455Z,8.00
2022-12-24T03:21:59.101Z,8.00
2022-12-24T03:24:27.139Z,8.00
2022-12-24T03:26:55.156Z,7.90
2022-12-24T03:29:23.193Z,7.80
2022-12-24T03:31:53.856Z,7.90
2022-12-24T03:34:23.258Z,7.90
2022-12-24T03:36:52.352Z,7.90
2022-12-24T03:39:20.548Z,7.90
2022-12-24T03:41:49.422Z,7.90
2022-12-24T03:44:17.453Z,7.90
2022-12-24T03:46:45.425Z,7.90
2022-12-24T03:49:13.433Z,7.90
2022-12-24T03:51:42.745Z,8.00
2022-12-24T03:54:10.709Z,8.00
2022-12-24T03:56:38.729Z,7.80
2022-12-24T03:59:06.731Z,8.10
2022-12-24T04:01:34.820Z,8.10
2022-12-24T04:04:02.915Z,8.10
2022-12-24T04:06:30.900Z,8.10
2022-12-24T04:09:05.053Z,8.00
2022-12-24T04:11:33.589Z,8.00
2022-12-24T04:14:01.647Z,8.00
2022-12-24T04:16:29.831Z,7.90
2022-12-24T04:18:57.905Z,7.90
2022-12-24T04:21:25.910Z,7.80
2022-12-24T04:23:53.886Z,7.70
2022-12-24T04:26:23.231Z,7.70
2022-12-24T04:28:51.209Z,7.70
2022-12-24T04:31:19.398Z,7.60
2022-12-24T04:33:47.758Z,7.60
2022-12-24T04:36:17.935Z,7.60
2022-12-24T04:38:47.004Z,7.80
2022-12-24T04:41:23.243Z,7.60
2022-12-24T04:43:54.867Z,7.60
2022-12-24T04:46:24.674Z,7.60
2022-12-24T04:48:54.624Z,7.60
2022-12-24T04:51:23.432Z,7.60
2022-12-24T04:53:52.120Z,7.60
2022-12-24T04:56:22.659Z,7.60
2022-12-24T04:58:51.878Z,7.60
2022-12-24T05:01:23.571Z,7.60
2022-12-24T05:03:52.092Z,7.50
2022-12-24T05:06:22.112Z,7.50
2022-12-24T05:08:50.473Z,7.50
2022-12-24T05:11:18.542Z,7.50
2022-12-24T05:13:48.154Z,7.60
2022-12-24T05:16:17.944Z,7.50
2022-12-24T05:18:47.555Z,7.50
2022-12-24T05:21:17.855Z,7.50
2022-12-24T05:24:03.382Z,7.60
2022-12-24T05:26:34.367Z,7.60
2022-12-24T05:29:03.492Z,7.70
2022-12-24T05:31:33.583Z,7.70
2022-12-24T05:34:04.067Z,7.70
2022-12-24T05:36:32.238Z,7.80
2022-12-24T05:39:00.290Z,7.70
2022-12-24T05:41:28.591Z,7.70
2022-12-24T05:43:56.890Z,7.70
2022-12-24T05:46:25.734Z,7.70
2022-12-24T05:48:54.349Z,7.70
2022-12-24T05:51:24.769Z,7.70
2022-12-24T05:53:53.353Z,7.70
2022-12-24T05:56:23.856Z,7.80
2022-12-24T05:58:53.546Z,7.90
2022-12-24T06:01:22.877Z,7.90
2022-12-24T06:03:51.400Z,8.00
2022-12-24T06:06:21.301Z,8.00
2022-12-24T06:08:52.031Z,8.00
2022-12-24T06:11:22.429Z,8.00
2022-12-24T06:13:50.631Z,8.00
2022-12-24T06:16:20.208Z,8.00
2022-12-24T06:18:48.431Z,8.10
2022-12-24T06:21:17.553Z,8.10
2022-12-24T06:23:46.778Z,8.20
2022-12-24T06:26:19.306Z,8.20
2022-12-24T06:28:48.193Z,8.20
2022-12-24T06:31:18.856Z,8.30
2022-12-24T06:33:46.935Z,8.30
2022-12-24T06:36:18.525Z,8.30
2022-12-24T06:38:46.968Z,8.30
2022-12-24T06:41:17.174Z,8.30
2022-12-24T06:43:46.482Z,8.30
2022-12-24T06:46:15.120Z,8.30
2022-12-24T06:48:44.332Z,8.60
2022-12-24T06:51:12.704Z,8.20
2022-12-24T06:53:41.193Z,8.20
2022-12-24T06:56:11.202Z,8.30
2022-12-24T06:58:41.817Z,8.30
2022-12-24T07:01:12.033Z,8.30
2022-12-24T07:03:40.372Z,8.30
2022-12-24T07:06:09.227Z,8.30
2022-12-24T07:08:37.209Z,8.30
2022-12-24T07:11:05.482Z,8.40
2022-12-24T07:13:34.439Z,8.40
2022-12-24T07:16:06.138Z,8.40
2022-12-24T07:18:34.593Z,8.60
2022-12-24T07:21:04.549Z,8.50
2022-12-24T07:23:32.645Z,8.50
2022-12-24T07:26:02.641Z,8.50
2022-12-24T07:28:31.697Z,8.60
2022-12-24T07:31:01.229Z,8.60
2022-12-24T07:33:31.052Z,8.60
2022-12-24T07:36:01.010Z,8.60
2022-12-24T07:38:29.197Z,8.70
2022-12-24T07:40:57.541Z,8.70
2022-12-24T07:43:25.962Z,8.80
2022-12-24T07:45:57.570Z,8.80
2022-12-24T07:48:26.078Z,8.80
2022-12-24T07:50:55.646Z,8.80
2022-12-24T07:53:24.347Z,8.80
2022-12-24T07:55:52.473Z,8.90
2022-12-24T07:58:20.618Z,8.90
2022-12-24T08:00:48.623Z,8.80
2022-12-24T08:03:18.812Z,8.90
2022-12-24T08:05:47.568Z,8.90
2022-12-24T08:08:16.979Z,9.00
2022-12-24T08:10:46.960Z,9.10
2022-12-24T08:13:15.436Z,9.10
2022-12-24T08:15:44.052Z,9.10
2022-12-24T08:18:12.951Z,9.10
2022-12-24T08:20:42.121Z,9.10
2022-12-24T08:23:10.729Z,9.20
2022-12-24T08:25:44.050Z,9.20
2022-12-24T08:28:12.534Z,9.30
2022-12-24T08:30:40.801Z,9.20
2022-12-24T08:33:08.962Z,9.30
2022-12-24T08:35:37.050Z,9.30
2022-12-24T08:38:05.048Z,9.30
2022-12-24T08:40:33.058Z,9.40
2022-12-24T08:43:02.990Z,9.30
2022-12-24T08:45:36.170Z,9.40
2022-12-24T08:48:08.419Z,9.40
2022-12-24T08:50:36.811Z,9.40
2022-12-24T08:53:04.811Z,9.50
2022-12-24T08:55:32.814Z,9.50
2022-12-24T08:58:02.549Z,9.50
2022-12-24T09:00:30.619Z,9.60
2022-12-24T09:02:59.343Z,9.60
2022-12-24T09:05:27.462Z,9.60
2022-12-24T09:07:55.415Z,9.70
2022-12-24T09:10:23.687Z,9.80
2022-12-24T09:12:52.170Z,9.60
2022-12-24T09:15:21.637Z,9.70
2022-12-24T09:17:49.663Z,9.70
2022-12-24T09:20:17.770Z,9.80
2022-12-24T09:22:45.767Z,9.70
2022-12-24T09:25:13.802Z,9.70
2022-12-24T09:27:41.790Z,9.80
2022-12-24T09:30:11.152Z,9.70
2022-12-24T09:32:40.512Z,9.80
2022-12-24T09:35:08.928Z,9.90
2022-12-24T09:37:37.370Z,9.90
2022-12-24T09:40:05.955Z,9.90
2022-12-24T09:42:43.835Z,10.10
2022-12-24T09:45:17.979Z,10.30
2022-12-24T09:47:50.212Z,10.30
2022-12-24T09:50:33.797Z,10.30
2022-12-24T09:53:05.734Z,10.40
2022-12-24T09:55:38.371Z,10.40
2022-12-24T09:58:11.785Z,10.40
2022-12-24T10:00:43.171Z,10.30
2022-12-24T10:03:17.489Z,10.30
2022-12-24T10:05:53.379Z,10.30
2022-12-24T10:08:30.843Z,10.40
2022-12-24T10:11:08.041Z,10.50
2022-12-24T10:13:48.267Z,10.50
2022-12-24T10:16:24.598Z,10.40
2022-12-24T10:19:03.207Z,10.30
2022-12-24T10:21:42.077Z,10.20
2022-12-24T10:24:16.549Z,10.40
2022-12-24T10:26:47.073Z,10.50
2022-12-24T10:29:19.040Z,10.50
2022-12-24T10:31:56.758Z,10.60
2022-12-24T10:34:31.391Z,10.60
2022-12-24T10:37:00.433Z,10.60
2022-12-24T10:39:28.604Z,10.60
2022-12-24T10:41:59.135Z,10.60
2022-12-24T10:44:29.735Z,10.60
2022-12-24T10:46:57.990Z,10.60
2022-12-24T10:49:34.958Z,10.50
2022-12-24T10:52:06.400Z,10.40
2022-12-24T10:54:39.425Z,10.40
2022-12-24T10:57:25.264Z,10.40
2022-12-24T10:59:55.858Z,10.30
2022-12-24T11:02:29.440Z,10.20
2022-12-24T11:05:00.520Z,10.10
2022-12-24T11:07:30.217Z,10.00
2022-12-24T11:09:59.635Z,10.00
2022-12-24T11:12:31.107Z,9.90
2022-12-24T11:15:08.408Z,10.00
2022-12-24T11:17:36.889Z,9.90
2022-12-24T11:20:07.316Z,9.90
2022-12-24T11:22:35.364Z,9.90
2022-12-24T11:25:07.206Z,10.00
2022-12-24T11:27:41.722Z,10.00
2022-12-24T11:30:28.608Z,10.00
2022-12-24T11:33:22.016Z,10.00
2022-12-24T11:36:02.849Z,10.00
2022-12-24T11:38:32.948Z,9.90
2022-12-24T11:41:06.877Z,9.90
2022-12-24T11:43:47.832Z,9.80
2022-12-24T11:46:37.913Z,9.80
2022-12-24T11:49:14.279Z,9.80
2022-12-24T11:52:13.739Z,9.80
2022-12-24T11:54:46.936Z,9.80
2022-12-24T11:57:17.136Z,9.80
2022-12-24T11:59:48.419Z,9.80
2022-12-24T12:02:23.683Z,9.80
2022-12-24T12:04:55.059Z,9.80
2022-12-24T12:07:29.030Z,9.80
2022-12-24T12:10:01.707Z,9.80
2022-12-24T12:12:33.325Z,9.80
2022-12-24T12:15:05.203Z,9.80
2022-12-24T12:17:37.405Z,9.80
2022-12-24T12:20:12.462Z,9.80
2022-12-24T12:22:49.819Z,9.80
2022-12-24T12:25:23.488Z,9.80
2022-12-24T12:27:55.140Z,9.70
2022-12-24T12:30:24.424Z,9.70
2022-12-24T12:32:58.520Z,9.60
2022-12-24T12:35:29.569Z,9.60
2022-12-24T12:38:01.743Z,9.60
2022-12-24T12:40:53.445Z,9.60
2022-12-24T12:43:38.707Z,9.60
2022-12-24T12:46:16.981Z,9.70
2022-12-24T12:49:05.932Z,9.80
2022-12-24T12:51:42.111Z,9.80
2022-12-24T12:54:27.961Z,9.90
2022-12-24T12:57:02.227Z,10.00
2022-12-24T12:59:37.350Z,10.10
2022-12-24T13:02:24.005Z,10.10
2022-12-24T13:05:21.114Z,10.10
2022-12-24T13:08:23.237Z,10.00
2022-12-24T13:11:15.537Z,9.90
2022-12-24T13:14:01.800Z,9.90
2022-12-24T13:16:55.005Z,9.90
2022-12-24T13:19:38.630Z,9.90
2022-12-24T13:22:15.354Z,9.90
2022-12-24T13:24:52.136Z,9.90
2022-12-24T13:27:25.996Z,9.90
2022-12-24T13:29:56.896Z,10.00
2022-12-24T13:32:48.398Z,9.90
2022-12-24T13:35:38.304Z,9.80
2022-12-24T13:38:35.816Z,9.70
2022-12-24T13:41:41.875Z,9.70
2022-12-24T13:44:23.311Z,9.70
2022-12-24T13:46:56.616Z,9.60
2022-12-24T13:49:30.461Z,9.60
2022-12-24T13:52:23.477Z,9.60
2022-12-24T13:55:07.447Z,9.40
2022-12-24T13:57:40.138Z,9.40
2022-12-24T14:00:41.039Z,9.40
2022-12-24T14:03:25.714Z,9.40
2022-12-24T14:05:56.422Z,9.40
2022-12-24T14:08:31.511Z,9.30
2022-12-24T14:11:06.189Z,9.30
2022-12-24T14:14:15.880Z,9.30
2022-12-24T14:16:49.823Z,9.30
2022-12-24T14:19:21.539Z,9.40
2022-12-24T14:21:57.952Z,9.40
2022-12-24T14:24:28.808Z,9.40
2022-12-24T14:27:01.994Z,9.50
2022-12-24T14:29:33.108Z,9.40
2022-12-24T14:32:04.641Z,9.40
2022-12-24T14:34:32.955Z,9.40
2022-12-24T14:37:04.532Z,9.50
2022-12-24T14:39:34.940Z,9.50
2022-12-24T14:42:24.946Z,9.50
2022-12-24T14:45:03.794Z,9.40
2022-12-24T14:47:39.688Z,9.40
2022-12-24T14:50:37.392Z,9.40
2022-12-24T14:53:19.281Z,9.40
2022-12-24T14:55:49.109Z,9.50
2022-12-24T14:58:25.025Z,9.50
2022-12-24T15:00:54.934Z,9.40
2022-12-24T15:03:25.868Z,9.40
2022-12-24T15:05:56.412Z,9.50
2022-12-24T15:08:32.296Z,9.50
2022-12-24T15:11:06.196Z,9.50
2022-12-24T15:13:39.859Z,9.50
2022-12-24T15:16:11.325Z,9.50
2022-12-24T15:18:45.614Z,9.60
2022-12-24T15:21:19.309Z,9.60
2022-12-24T15:23:53.035Z,9.60
2022-12-24T15:26:25.345Z,9.70
2022-12-24T15:29:01.907Z,9.60
2022-12-24T15:31:32.243Z,9.60
2022-12-24T15:34:02.004Z,9.60
2022-12-24T15:36:32.704Z,9.60
2022-12-24T15:39:04.140Z,9.60
2022-12-24T15:41:59.772Z,9.60
2022-12-24T15:44:28.923Z,9.60
2022-12-24T15:47:00.872Z,9.50
2022-12-24T15:49:32.043Z,9.50
2022-12-24T15:52:06.082Z,9.60
2022-12-24T15:54:34.757Z,9.60
2022-12-24T15:57:14.697Z,9.60
2022-12-24T15:59:42.691Z,9.50
2022-12-24T16:02:34.932Z,9.50
2022-12-24T16:05:32.848Z,9.50
2022-12-24T16:08:08.260Z,9.50
2022-12-24T16:10:39.576Z,9.40
2022-12-24T16:13:17.332Z,9.40
2022-12-24T16:15:51.337Z,9.40
2022-12-24T16:18:24.482Z,9.50
2022-12-24T16:20:55.794Z,9.40
2022-12-24T16:23:26.521Z,9.40
2022-12-24T16:25:54.773Z,9.40
2022-12-24T16:28:23.371Z,9.40
2022-12-24T16:30:51.822Z,9.40
2022-12-24T16:33:21.756Z,9.30
2022-12-24T16:35:50.236Z,9.20
2022-12-24T16:38:19.788Z,9.20
2022-12-24T16:40:47.800Z,9.20
2022-12-24T16:43:33.169Z,9.10
2022-12-24T16:46:02.873Z,9.10
2022-12-24T16:48:33.989Z,9.10
2022-12-24T16:51:02.001Z,9.10
2022-12-24T16:53:31.468Z,9.20
2022-12-24T16:55:59.446Z,9.10
2022-12-24T16:58:27.440Z,9.10
2022-12-24T17:00:55.421Z,9.10
2022-12-24T17:03:23.693Z,9.00
2022-12-24T17:05:51.799Z,9.10
2022-12-24T17:08:19.767Z,9.10
2022-12-24T17:10:52.893Z,9.10
2022-12-24T17:13:20.956Z,9.10
2022-12-24T17:15:49.028Z,9.10
2022-12-24T17:18:17.621Z,9.20
2022-12-24T17:20:45.693Z,9.20
2022-12-24T17:23:13.709Z,9.20
2022-12-24T17:25:42.239Z,9.20
2022-12-24T17:28:11.561Z,9.20
2022-12-24T17:30:41.142Z,9.20
2022-12-24T17:33:14.288Z,9.20
2022-12-24T17:35:43.753Z,9.20
2022-12-24T17:38:11.848Z,9.20
2022-12-24T17:40:39.832Z,9.10
2022-12-24T17:43:07.820Z,9.00
2022-12-24T17:45:41.340Z,8.90
2022-12-24T17:48:09.462Z,8.80
2022-12-24T17:50:40.499Z,8.80
2022-12-24T17:53:08.764Z,8.70
2022-12-24T17:55:41.569Z,8.70
2022-12-24T17:58:09.654Z,8.60
2022-12-24T18:00:39.404Z,8.50
2022-12-24T18:03:07.596Z,8.50
2022-12-24T18:05:36.395Z,8.40
2022-12-24T18:08:04.695Z,8.40
2022-12-24T18:10:32.697Z,8.40
2022-12-24T18:13:00.668Z,8.50
2022-12-24T18:15:28.685Z,8.60
2022-12-24T18:17:59.305Z,8.60
2022-12-24T18:20:27.541Z,8.60
2022-12-24T18:22:55.726Z,8.70
2022-12-24T18:25:24.200Z,8.70
2022-12-24T18:27:52.246Z,8.70
2022-12-24T18:30:25.858Z,8.80
2022-12-24T18:32:57.029Z,8.80
2022-12-24T18:35:25.183Z,8.80
2022-12-24T18:37:53.454Z,8.80
2022-12-24T18:40:21.496Z,8.80
2022-12-24T18:42:49.449Z,8.80
2022-12-24T18:45:17.670Z,8.80
2022-12-24T18:47:45.761Z,8.80
2022-12-24T18:50:15.092Z,8.80
2022-12-24T18:52:43.068Z,8.80
2022-12-24T18:55:11.539Z,8.80
2022-12-24T18:57:39.593Z,8.70
2022-12-24T19:00:09.466Z,8.70
2022-12-24T19:02:37.574Z,8.70
2022-12-24T19:05:06.212Z,8.70
2022-12-24T19:07:35.583Z,8.70
2022-12-24T19:10:03.756Z,8.70
2022-12-24T19:12:31.752Z,8.70
2022-12-24T19:14:59.740Z,8.70
2022-12-24T19:17:28.020Z,8.70
2022-12-24T19:19:55.998Z,8.60
2022-12-24T19:22:24.002Z,8.60
2022-12-24T19:24:53.359Z,8.60
2022-12-24T19:27:21.341Z,8.60
2022-12-24T19:29:49.331Z,8.50
2022-12-24T19:32:17.342Z,8.50
2022-12-24T19:34:45.333Z,8.50
2022-12-24T19:37:13.389Z,8.60
2022-12-24T19:39:43.213Z,8.60
2022-12-24T19:42:12.543Z,8.60
2022-12-24T19:44:40.490Z,8.60
2022-12-24T19:47:08.459Z,8.70
2022-12-24T19:49:36.495Z,8.70
2022-12-24T19:52:04.598Z,8.70
2022-12-24T19:54:32.581Z,8.70
2022-12-24T19:57:00.587Z,8.70
2022-12-24T19:59:29.934Z,8.70
2022-12-24T20:01:58.040Z,8.70
2022-12-24T20:04:26.229Z,8.70
2022-12-24T20:07:00.065Z,8.80
2022-12-24T20:09:31.487Z,8.70
2022-12-24T20:11:59.557Z,8.70
2022-12-24T20:14:29.077Z,8.70
2022-12-24T20:16:57.118Z,8.70
2022-12-24T20:19:25.214Z,8.70
2022-12-24T20:21:53.241Z,8.70
2022-12-24T20:24:21.268Z,8.60
2022-12-24T20:26:49.229Z,8.60
2022-12-24T20:29:17.380Z,8.60
2022-12-24T20:31:46.815Z,8.60
2022-12-24T20:34:14.808Z,8.60
2022-12-24T20:36:43.411Z,8.60
2022-12-24T20:39:13.473Z,8.60
2022-12-24T20:41:41.508Z,8.60
2022-12-24T20:44:11.090Z,8.60
2022-12-24T20:46:39.124Z,8.70
2022-12-24T20:49:08.497Z,8.70
2022-12-24T20:51:36.546Z,8.70
2022-12-24T20:54:04.751Z,8.70
2022-12-24T20:56:32.778Z,8.70
2022-12-24T20:59:02.011Z,8.70
2022-12-24T21:01:30.783Z,8.70
2022-12-24T21:04:04.448Z,8.70
2022-12-24T21:06:35.049Z,8.70
2022-12-24T21:09:03.747Z,8.80
2022-12-24T21:11:49.082Z,8.70
2022-12-24T21:14:18.351Z,8.70
2022-12-24T21:16:46.793Z,8.70
2022-12-24T21:19:19.324Z,8.60
2022-12-24T21:21:49.106Z,8.60
2022-12-24T21:24:17.773Z,8.60
2022-12-24T21:26:45.791Z,8.60
2022-12-24T21:29:14.688Z,8.60
2022-12-24T21:31:43.267Z,8.50
2022-12-24T21:34:11.401Z,8.50
2022-12-24T21:36:39.396Z,8.50
2022-12-24T21:39:08.762Z,8.60
2022-12-24T21:41:36.769Z,8.60
2022-12-24T21:44:04.783Z,8.50
2022-12-24T21:46:32.980Z,8.50
2022-12-24T21:49:23.722Z,8.60
2022-12-24T21:51:51.731Z,8.60
2022-12-24T21:54:23.153Z,8.60
2022-12-24T21:57:08.947Z,8.60
2022-12-24T21:59:36.996Z,8.60
2022-12-24T22:02:05.656Z,8.50
2022-12-24T22:04:34.351Z,8.50
2022-12-24T22:07:19.817Z,8.60
2022-12-24T22:10:06.863Z,8.60
2022-12-24T22:12:35.248Z,8.60
2022-12-24T22:15:05.787Z,8.60
2022-12-24T22:17:34.165Z,8.70
2022-12-24T22:20:02.339Z,8.60
2022-12-24T22:22:30.926Z,8.60
2022-12-24T22:25:00.236Z,8.60
2022-12-24T22:27:28.229Z,8.60
2022-12-24T22:29:56.307Z,8.50
2022-12-24T22:32:24.288Z,8.50
2022-12-24T22:34:53.808Z,8.50
2022-12-24T22:37:21.835Z,8.40
2022-12-24T22:39:49.814Z,8.40
2022-12-24T22:42:19.258Z,8.40
2022-12-24T22:44:48.726Z,8.30
2022-12-24T22:47:16.808Z,8.30
2022-12-24T22:49:44.816Z,8.30
2022-12-24T22:52:12.787Z,8.30
2022-12-24T22:54:40.776Z,8.40
2022-12-24T22:57:08.818Z,8.40
2022-12-24T22:59:38.927Z,8.30
2022-12-24T23:02:08.472Z,8.30
2022-12-24T23:04:37.401Z,8.30
2022-12-24T23:07:06.218Z,8.30
2022-12-24T23:09:34.623Z,8.30
2022-12-24T23:12:02.862Z,8.30
2022-12-24T23:14:48.636Z,8.60
2022-12-24T23:17:18.214Z,8.30
2022-12-24T23:19:46.943Z,8.20
2022-12-24T23:22:14.892Z,8.20
2022-12-24T23:24:42.921Z,8.20
2022-12-24T23:27:10.951Z,8.20
2022-12-24T23:29:38.959Z,8.20
2022-12-24T23:32:07.013Z,8.20
2022-12-24T23:34:36.334Z,8.20
2022-12-24T23:37:04.314Z,8.30
2022-12-24T23:39:32.271Z,8.40
2022-12-24T23:42:00.236Z,8.40
2022-12-24T23:44:32.164Z,8.30
2022-12-24T23:47:00.961Z,8.30
2022-12-24T23:49:29.043Z,8.20
2022-12-24T23:51:58.425Z,8.10
2022-12-24T23:54:26.432Z,8.00
2022-12-24T23:56:54.414Z,7.90
2022-12-24T23:59:22.478Z,7.80
